sensor_id;sensor_type;location;lat;lon;timestamp;P1;durP1;ratioP1;P2;durP2;ratioP2
21761;SDS011;11203;50.870;20.682;2023-04-23T00:01:29;25.75;;;16.13;;
21761;SDS011;11203;50.870;20.682;2023-04-23T00:03:59;24.27;;;14.98;;
21761;SDS011;11203;50.870;20.682;2023-04-23T00:06:27;22.45;;;15.25;;
21761;SDS011;11203;50.870;20.682;2023-04-23T00:08:54;24.65;;;16.63;;
21761;SDS011;11203;50.870;20.682;2023-04-23T00:11:24;38.35;;;26.08;;
21761;SDS011;11203;50.870;20.682;2023-04-23T00:13:51;28.58;;;19.45;;
21761;SDS011;11203;50.870;20.682;2023-04-23T00:16:18;33.45;;;22.58;;
21761;SDS011;11203;50.870;20.682;2023-04-23T00:18:45;27.85;;;21.30;;
21761;SDS011;11203;50.870;20.682;2023-04-23T00:21:12;27.75;;;21.40;;
21761;SDS011;11203;50.870;20.682;2023-04-23T00:23:39;35.58;;;26.60;;
21761;SDS011;11203;50.870;20.682;2023-04-23T00:26:05;29.63;;;20.38;;
21761;SDS011;11203;50.870;20.682;2023-04-23T00:28:31;30.08;;;19.60;;
21761;SDS011;11203;50.870;20.682;2023-04-23T00:30:57;30.83;;;22.58;;
21761;SDS011;11203;50.870;20.682;2023-04-23T00:33:23;24.48;;;16.65;;
21761;SDS011;11203;50.870;20.682;2023-04-23T00:35:50;27.23;;;18.95;;
21761;SDS011;11203;50.870;20.682;2023-04-23T00:38:16;28.13;;;19.60;;
21761;SDS011;11203;50.870;20.682;2023-04-23T00:40:45;31.73;;;19.40;;
21761;SDS011;11203;50.870;20.682;2023-04-23T00:43:12;26.05;;;15.70;;
21761;SDS011;11203;50.870;20.682;2023-04-23T00:45:39;23.05;;;15.48;;
21761;SDS011;11203;50.870;20.682;2023-04-23T00:48:06;26.80;;;18.63;;
21761;SDS011;11203;50.870;20.682;2023-04-23T00:50:32;27.33;;;16.45;;
21761;SDS011;11203;50.870;20.682;2023-04-23T00:52:58;28.20;;;17.67;;
21761;SDS011;11203;50.870;20.682;2023-04-23T00:55:25;28.10;;;19.92;;
21761;SDS011;11203;50.870;20.682;2023-04-23T00:57:51;31.95;;;20.05;;
21761;SDS011;11203;50.870;20.682;2023-04-23T01:00:18;33.42;;;23.02;;
21761;SDS011;11203;50.870;20.682;2023-04-23T01:02:45;30.83;;;21.50;;
21761;SDS011;11203;50.870;20.682;2023-04-23T01:05:13;25.40;;;16.00;;
21761;SDS011;11203;50.870;20.682;2023-04-23T01:07:43;24.38;;;16.63;;
21761;SDS011;11203;50.870;20.682;2023-04-23T01:10:11;30.80;;;19.33;;
21761;SDS011;11203;50.870;20.682;2023-04-23T01:12:37;30.80;;;20.92;;
21761;SDS011;11203;50.870;20.682;2023-04-23T01:15:04;29.73;;;24.20;;
21761;SDS011;11203;50.870;20.682;2023-04-23T01:17:32;35.03;;;31.20;;
21761;SDS011;11203;50.870;20.682;2023-04-23T01:19:59;31.98;;;27.40;;
21761;SDS011;11203;50.870;20.682;2023-04-23T01:22:25;37.15;;;28.77;;
21761;SDS011;11203;50.870;20.682;2023-04-23T01:24:51;26.88;;;20.15;;
21761;SDS011;11203;50.870;20.682;2023-04-23T01:27:17;24.70;;;16.35;;
21761;SDS011;11203;50.870;20.682;2023-04-23T01:29:44;23.00;;;16.83;;
21761;SDS011;11203;50.870;20.682;2023-04-23T01:32:12;20.50;;;14.52;;
21761;SDS011;11203;50.870;20.682;2023-04-23T01:34:38;23.35;;;15.05;;
21761;SDS011;11203;50.870;20.682;2023-04-23T01:37:05;18.20;;;13.98;;
21761;SDS011;11203;50.870;20.682;2023-04-23T01:39:32;24.27;;;17.52;;
21761;SDS011;11203;50.870;20.682;2023-04-23T01:41:58;23.20;;;14.25;;
21761;SDS011;11203;50.870;20.682;2023-04-23T01:44:25;23.33;;;14.70;;
21761;SDS011;11203;50.870;20.682;2023-04-23T01:46:51;25.17;;;15.93;;
21761;SDS011;11203;50.870;20.682;2023-04-23T01:49:18;21.30;;;12.35;;
21761;SDS011;11203;50.870;20.682;2023-04-23T01:51:44;18.13;;;13.02;;
21761;SDS011;11203;50.870;20.682;2023-04-23T01:54:10;23.90;;;15.85;;
21761;SDS011;11203;50.870;20.682;2023-04-23T01:56:36;17.05;;;13.60;;
21761;SDS011;11203;50.870;20.682;2023-04-23T01:59:02;22.40;;;16.42;;
21761;SDS011;11203;50.870;20.682;2023-04-23T02:01:41;19.30;;;14.02;;
21761;SDS011;11203;50.870;20.682;2023-04-23T02:04:10;16.90;;;12.32;;
21761;SDS011;11203;50.870;20.682;2023-04-23T02:06:38;18.52;;;13.10;;
21761;SDS011;11203;50.870;20.682;2023-04-23T02:09:06;21.13;;;17.25;;
21761;SDS011;11203;50.870;20.682;2023-04-23T02:11:32;22.17;;;18.60;;
21761;SDS011;11203;50.870;20.682;2023-04-23T02:13:59;25.13;;;22.42;;
21761;SDS011;11203;50.870;20.682;2023-04-23T02:16:26;22.98;;;18.00;;
21761;SDS011;11203;50.870;20.682;2023-04-23T02:18:53;21.98;;;16.70;;
21761;SDS011;11203;50.870;20.682;2023-04-23T02:21:20;17.55;;;11.90;;
21761;SDS011;11203;50.870;20.682;2023-04-23T02:23:48;17.63;;;12.82;;
21761;SDS011;11203;50.870;20.682;2023-04-23T02:26:15;22.52;;;15.65;;
21761;SDS011;11203;50.870;20.682;2023-04-23T02:28:41;16.83;;;12.52;;
21761;SDS011;11203;50.870;20.682;2023-04-23T02:31:07;17.38;;;11.57;;
21761;SDS011;11203;50.870;20.682;2023-04-23T02:33:33;14.70;;;10.80;;
21761;SDS011;11203;50.870;20.682;2023-04-23T02:35:59;17.33;;;12.75;;
21761;SDS011;11203;50.870;20.682;2023-04-23T02:38:26;16.15;;;11.30;;
21761;SDS011;11203;50.870;20.682;2023-04-23T02:40:55;17.23;;;13.40;;
21761;SDS011;11203;50.870;20.682;2023-04-23T02:43:21;21.73;;;16.02;;
21761;SDS011;11203;50.870;20.682;2023-04-23T02:45:47;15.50;;;11.57;;
21761;SDS011;11203;50.870;20.682;2023-04-23T02:48:13;22.48;;;13.18;;
21761;SDS011;11203;50.870;20.682;2023-04-23T02:50:39;18.35;;;12.40;;
21761;SDS011;11203;50.870;20.682;2023-04-23T02:53:06;18.15;;;13.15;;
21761;SDS011;11203;50.870;20.682;2023-04-23T02:55:32;21.08;;;13.30;;
21761;SDS011;11203;50.870;20.682;2023-04-23T02:57:58;17.45;;;12.68;;
21761;SDS011;11203;50.870;20.682;2023-04-23T03:00:25;26.90;;;18.27;;
21761;SDS011;11203;50.870;20.682;2023-04-23T03:02:52;26.75;;;17.98;;
21761;SDS011;11203;50.870;20.682;2023-04-23T03:05:18;24.30;;;16.42;;
21761;SDS011;11203;50.870;20.682;2023-04-23T03:07:44;36.17;;;29.50;;
21761;SDS011;11203;50.870;20.682;2023-04-23T03:10:10;18.58;;;13.85;;
21761;SDS011;11203;50.870;20.682;2023-04-23T03:12:36;16.85;;;12.15;;
21761;SDS011;11203;50.870;20.682;2023-04-23T03:15:02;17.58;;;11.13;;
21761;SDS011;11203;50.870;20.682;2023-04-23T03:17:29;17.10;;;11.73;;
21761;SDS011;11203;50.870;20.682;2023-04-23T03:19:55;16.42;;;11.52;;
21761;SDS011;11203;50.870;20.682;2023-04-23T03:22:21;17.80;;;12.35;;
21761;SDS011;11203;50.870;20.682;2023-04-23T03:24:47;34.85;;;21.67;;
21761;SDS011;11203;50.870;20.682;2023-04-23T03:27:13;50.40;;;27.30;;
21761;SDS011;11203;50.870;20.682;2023-04-23T03:29:39;44.10;;;28.30;;
21761;SDS011;11203;50.870;20.682;2023-04-23T03:32:05;33.33;;;20.48;;
21761;SDS011;11203;50.870;20.682;2023-04-23T03:34:31;39.15;;;26.77;;
21761;SDS011;11203;50.870;20.682;2023-04-23T03:36:58;31.17;;;20.70;;
21761;SDS011;11203;50.870;20.682;2023-04-23T03:39:23;28.50;;;19.30;;
21761;SDS011;11203;50.870;20.682;2023-04-23T03:41:50;33.22;;;20.17;;
21761;SDS011;11203;50.870;20.682;2023-04-23T03:44:16;30.38;;;21.55;;
21761;SDS011;11203;50.870;20.682;2023-04-23T03:46:42;30.55;;;23.40;;
21761;SDS011;11203;50.870;20.682;2023-04-23T03:49:08;33.22;;;24.75;;
21761;SDS011;11203;50.870;20.682;2023-04-23T03:51:34;23.25;;;20.35;;
21761;SDS011;11203;50.870;20.682;2023-04-23T03:54:00;24.35;;;21.67;;
21761;SDS011;11203;50.870;20.682;2023-04-23T03:56:26;19.35;;;14.25;;
21761;SDS011;11203;50.870;20.682;2023-04-23T03:58:52;22.60;;;18.27;;
21761;SDS011;11203;50.870;20.682;2023-04-23T04:01:18;21.30;;;14.10;;
21761;SDS011;11203;50.870;20.682;2023-04-23T04:03:44;16.95;;;13.38;;
21761;SDS011;11203;50.870;20.682;2023-04-23T04:06:10;26.33;;;16.42;;
21761;SDS011;11203;50.870;20.682;2023-04-23T04:08:36;33.40;;;23.42;;
21761;SDS011;11203;50.870;20.682;2023-04-23T04:11:02;39.60;;;25.27;;
21761;SDS011;11203;50.870;20.682;2023-04-23T04:13:28;40.67;;;26.15;;
21761;SDS011;11203;50.870;20.682;2023-04-23T04:15:55;39.63;;;26.35;;
21761;SDS011;11203;50.870;20.682;2023-04-23T04:18:21;41.28;;;27.10;;
21761;SDS011;11203;50.870;20.682;2023-04-23T04:20:47;43.85;;;29.27;;
21761;SDS011;11203;50.870;20.682;2023-04-23T04:23:13;38.88;;;28.40;;
21761;SDS011;11203;50.870;20.682;2023-04-23T04:25:39;43.25;;;29.17;;
21761;SDS011;11203;50.870;20.682;2023-04-23T04:28:06;87.82;;;41.83;;
21761;SDS011;11203;50.870;20.682;2023-04-23T04:30:34;42.95;;;24.15;;
21761;SDS011;11203;50.870;20.682;2023-04-23T04:33:00;35.60;;;21.25;;
21761;SDS011;11203;50.870;20.682;2023-04-23T04:35:26;30.98;;;21.10;;
21761;SDS011;11203;50.870;20.682;2023-04-23T04:37:52;38.35;;;22.50;;
21761;SDS011;11203;50.870;20.682;2023-04-23T04:40:19;35.85;;;22.92;;
21761;SDS011;11203;50.870;20.682;2023-04-23T04:42:45;27.38;;;19.85;;
21761;SDS011;11203;50.870;20.682;2023-04-23T04:45:11;35.78;;;23.83;;
21761;SDS011;11203;50.870;20.682;2023-04-23T04:47:37;48.38;;;32.60;;
21761;SDS011;11203;50.870;20.682;2023-04-23T04:50:04;45.90;;;31.67;;
21761;SDS011;11203;50.870;20.682;2023-04-23T04:52:30;62.58;;;38.17;;
21761;SDS011;11203;50.870;20.682;2023-04-23T04:54:57;50.25;;;31.52;;
21761;SDS011;11203;50.870;20.682;2023-04-23T04:57:22;69.38;;;42.22;;
21761;SDS011;11203;50.870;20.682;2023-04-23T04:59:52;87.43;;;53.33;;
21761;SDS011;11203;50.870;20.682;2023-04-23T05:02:18;48.28;;;37.20;;
21761;SDS011;11203;50.870;20.682;2023-04-23T05:04:46;65.60;;;52.75;;
21761;SDS011;11203;50.870;20.682;2023-04-23T05:07:13;50.10;;;40.25;;
21761;SDS011;11203;50.870;20.682;2023-04-23T05:09:39;54.28;;;43.15;;
21761;SDS011;11203;50.870;20.682;2023-04-23T05:12:05;52.42;;;42.70;;
21761;SDS011;11203;50.870;20.682;2023-04-23T05:14:32;44.85;;;33.42;;
21761;SDS011;11203;50.870;20.682;2023-04-23T05:16:58;147.30;;;88.65;;
21761;SDS011;11203;50.870;20.682;2023-04-23T05:19:24;129.15;;;64.95;;
21761;SDS011;11203;50.870;20.682;2023-04-23T05:21:50;64.15;;;31.15;;
21761;SDS011;11203;50.870;20.682;2023-04-23T05:24:16;285.27;;;104.35;;
21761;SDS011;11203;50.870;20.682;2023-04-23T05:26:42;77.53;;;31.25;;
21761;SDS011;11203;50.870;20.682;2023-04-23T05:29:08;73.40;;;28.63;;
21761;SDS011;11203;50.870;20.682;2023-04-23T05:31:34;89.20;;;34.03;;
21761;SDS011;11203;50.870;20.682;2023-04-23T05:34:00;111.97;;;42.00;;
21761;SDS011;11203;50.870;20.682;2023-04-23T05:36:26;48.22;;;20.73;;
21761;SDS011;11203;50.870;20.682;2023-04-23T05:38:53;43.28;;;19.48;;
21761;SDS011;11203;50.870;20.682;2023-04-23T05:41:18;39.25;;;19.50;;
21761;SDS011;11203;50.870;20.682;2023-04-23T05:43:45;34.45;;;17.55;;
21761;SDS011;11203;50.870;20.682;2023-04-23T05:46:11;55.22;;;27.40;;
21761;SDS011;11203;50.870;20.682;2023-04-23T05:48:37;24.25;;;13.43;;
21761;SDS011;11203;50.870;20.682;2023-04-23T05:51:03;27.48;;;15.63;;
21761;SDS011;11203;50.870;20.682;2023-04-23T05:53:29;30.38;;;15.82;;
21761;SDS011;11203;50.870;20.682;2023-04-23T05:55:55;26.77;;;15.75;;
21761;SDS011;11203;50.870;20.682;2023-04-23T05:58:22;26.83;;;14.65;;
21761;SDS011;11203;50.870;20.682;2023-04-23T06:00:48;25.08;;;14.02;;
21761;SDS011;11203;50.870;20.682;2023-04-23T06:03:14;20.00;;;9.27;;
21761;SDS011;11203;50.870;20.682;2023-04-23T06:05:40;12.80;;;7.50;;
21761;SDS011;11203;50.870;20.682;2023-04-23T06:08:07;20.73;;;8.90;;
21761;SDS011;11203;50.870;20.682;2023-04-23T06:10:33;13.57;;;8.55;;
21761;SDS011;11203;50.870;20.682;2023-04-23T06:13:00;20.95;;;8.00;;
21761;SDS011;11203;50.870;20.682;2023-04-23T06:15:26;14.23;;;7.70;;
21761;SDS011;11203;50.870;20.682;2023-04-23T06:17:52;13.43;;;6.80;;
21761;SDS011;11203;50.870;20.682;2023-04-23T06:20:18;8.60;;;6.38;;
21761;SDS011;11203;50.870;20.682;2023-04-23T06:22:44;8.65;;;6.97;;
21761;SDS011;11203;50.870;20.682;2023-04-23T06:25:10;15.95;;;8.75;;
21761;SDS011;11203;50.870;20.682;2023-04-23T06:27:36;10.73;;;7.20;;
21761;SDS011;11203;50.870;20.682;2023-04-23T06:30:03;9.40;;;6.70;;
21761;SDS011;11203;50.870;20.682;2023-04-23T06:32:29;8.13;;;6.38;;
21761;SDS011;11203;50.870;20.682;2023-04-23T06:34:55;11.85;;;6.60;;
21761;SDS011;11203;50.870;20.682;2023-04-23T06:37:22;7.80;;;6.90;;
21761;SDS011;11203;50.870;20.682;2023-04-23T06:39:50;10.45;;;6.32;;
21761;SDS011;11203;50.870;20.682;2023-04-23T06:42:16;8.10;;;5.90;;
21761;SDS011;11203;50.870;20.682;2023-04-23T06:44:42;12.32;;;7.82;;
21761;SDS011;11203;50.870;20.682;2023-04-23T06:47:11;13.77;;;6.22;;
21761;SDS011;11203;50.870;20.682;2023-04-23T06:49:38;8.77;;;6.35;;
21761;SDS011;11203;50.870;20.682;2023-04-23T06:52:05;10.82;;;6.65;;
21761;SDS011;11203;50.870;20.682;2023-04-23T06:54:31;7.93;;;5.90;;
21761;SDS011;11203;50.870;20.682;2023-04-23T06:56:57;7.65;;;5.85;;
21761;SDS011;11203;50.870;20.682;2023-04-23T06:59:23;7.60;;;5.97;;
21761;SDS011;11203;50.870;20.682;2023-04-23T07:01:49;10.07;;;6.45;;
21761;SDS011;11203;50.870;20.682;2023-04-23T07:04:15;12.95;;;6.38;;
21761;SDS011;11203;50.870;20.682;2023-04-23T07:06:42;11.05;;;6.03;;
21761;SDS011;11203;50.870;20.682;2023-04-23T07:09:08;9.68;;;6.10;;
21761;SDS011;11203;50.870;20.682;2023-04-23T07:11:34;11.45;;;5.70;;
21761;SDS011;11203;50.870;20.682;2023-04-23T07:14:01;6.90;;;5.57;;
21761;SDS011;11203;50.870;20.682;2023-04-23T07:16:28;9.05;;;5.88;;
21761;SDS011;11203;50.870;20.682;2023-04-23T07:18:57;8.32;;;5.13;;
21761;SDS011;11203;50.870;20.682;2023-04-23T07:21:26;6.40;;;5.32;;
21761;SDS011;11203;50.870;20.682;2023-04-23T07:23:56;8.38;;;5.70;;
21761;SDS011;11203;50.870;20.682;2023-04-23T07:26:31;10.88;;;7.55;;
21761;SDS011;11203;50.870;20.682;2023-04-23T07:28:58;9.25;;;6.65;;
21761;SDS011;11203;50.870;20.682;2023-04-23T07:31:26;31.55;;;18.42;;
21761;SDS011;11203;50.870;20.682;2023-04-23T07:33:53;8.15;;;5.93;;
21761;SDS011;11203;50.870;20.682;2023-04-23T07:36:21;8.75;;;7.13;;
21761;SDS011;11203;50.870;20.682;2023-04-23T07:38:47;8.02;;;6.07;;
21761;SDS011;11203;50.870;20.682;2023-04-23T07:41:13;16.35;;;12.73;;
21761;SDS011;11203;50.870;20.682;2023-04-23T07:43:40;10.43;;;7.10;;
21761;SDS011;11203;50.870;20.682;2023-04-23T07:46:06;11.57;;;7.63;;
21761;SDS011;11203;50.870;20.682;2023-04-23T07:48:33;8.15;;;6.00;;
21761;SDS011;11203;50.870;20.682;2023-04-23T07:50:59;18.05;;;5.90;;
21761;SDS011;11203;50.870;20.682;2023-04-23T07:53:26;9.95;;;6.10;;
21761;SDS011;11203;50.870;20.682;2023-04-23T07:55:56;9.80;;;6.57;;
21761;SDS011;11203;50.870;20.682;2023-04-23T07:58:23;8.55;;;6.38;;
21761;SDS011;11203;50.870;20.682;2023-04-23T08:00:50;7.72;;;6.25;;
21761;SDS011;11203;50.870;20.682;2023-04-23T08:03:16;7.30;;;6.20;;
21761;SDS011;11203;50.870;20.682;2023-04-23T08:05:42;9.68;;;6.60;;
21761;SDS011;11203;50.870;20.682;2023-04-23T08:08:09;10.45;;;6.07;;
21761;SDS011;11203;50.870;20.682;2023-04-23T08:10:38;9.93;;;6.60;;
21761;SDS011;11203;50.870;20.682;2023-04-23T08:13:04;8.77;;;6.75;;
21761;SDS011;11203;50.870;20.682;2023-04-23T08:15:31;9.77;;;6.10;;
21761;SDS011;11203;50.870;20.682;2023-04-23T08:17:57;8.85;;;5.72;;
21761;SDS011;11203;50.870;20.682;2023-04-23T08:20:23;9.07;;;5.80;;
21761;SDS011;11203;50.870;20.682;2023-04-23T08:22:50;8.80;;;5.90;;
21761;SDS011;11203;50.870;20.682;2023-04-23T08:25:18;7.40;;;5.45;;
21761;SDS011;11203;50.870;20.682;2023-04-23T08:27:45;7.22;;;5.65;;
21761;SDS011;11203;50.870;20.682;2023-04-23T08:30:11;8.05;;;6.07;;
21761;SDS011;11203;50.870;20.682;2023-04-23T08:32:38;7.50;;;6.30;;
21761;SDS011;11203;50.870;20.682;2023-04-23T08:35:07;7.35;;;6.10;;
21761;SDS011;11203;50.870;20.682;2023-04-23T08:37:34;7.07;;;5.43;;
21761;SDS011;11203;50.870;20.682;2023-04-23T08:40:00;9.68;;;6.00;;
21761;SDS011;11203;50.870;20.682;2023-04-23T08:42:34;7.60;;;5.60;;
21761;SDS011;11203;50.870;20.682;2023-04-23T08:45:16;7.78;;;5.65;;
21761;SDS011;11203;50.870;20.682;2023-04-23T08:47:43;6.28;;;5.47;;
21761;SDS011;11203;50.870;20.682;2023-04-23T08:50:10;9.27;;;5.63;;
21761;SDS011;11203;50.870;20.682;2023-04-23T08:52:45;5.82;;;5.20;;
21761;SDS011;11203;50.870;20.682;2023-04-23T08:55:15;6.97;;;5.00;;
21761;SDS011;11203;50.870;20.682;2023-04-23T08:57:42;10.88;;;5.85;;
21761;SDS011;11203;50.870;20.682;2023-04-23T09:00:11;7.50;;;5.28;;
21761;SDS011;11203;50.870;20.682;2023-04-23T09:02:42;8.52;;;5.47;;
21761;SDS011;11203;50.870;20.682;2023-04-23T09:05:14;9.75;;;5.50;;
21761;SDS011;11203;50.870;20.682;2023-04-23T09:07:41;9.23;;;4.95;;
21761;SDS011;11203;50.870;20.682;2023-04-23T09:10:08;25.15;;;7.88;;
21761;SDS011;11203;50.870;20.682;2023-04-23T09:12:37;7.75;;;4.65;;
21761;SDS011;11203;50.870;20.682;2023-04-23T09:15:06;18.08;;;5.75;;
21761;SDS011;11203;50.870;20.682;2023-04-23T09:17:37;6.30;;;5.18;;
21761;SDS011;11203;50.870;20.682;2023-04-23T09:20:06;6.95;;;4.80;;
21761;SDS011;11203;50.870;20.682;2023-04-23T09:22:40;7.95;;;5.60;;
21761;SDS011;11203;50.870;20.682;2023-04-23T09:25:21;7.15;;;5.05;;
21761;SDS011;11203;50.870;20.682;2023-04-23T09:27:48;6.18;;;4.70;;
21761;SDS011;11203;50.870;20.682;2023-04-23T09:30:16;6.35;;;5.13;;
21761;SDS011;11203;50.870;20.682;2023-04-23T09:32:43;6.47;;;5.10;;
21761;SDS011;11203;50.870;20.682;2023-04-23T09:35:12;9.40;;;6.43;;
21761;SDS011;11203;50.870;20.682;2023-04-23T09:37:40;10.13;;;6.28;;
21761;SDS011;11203;50.870;20.682;2023-04-23T09:40:13;6.15;;;4.90;;
21761;SDS011;11203;50.870;20.682;2023-04-23T09:42:48;11.65;;;9.27;;
21761;SDS011;11203;50.870;20.682;2023-04-23T09:45:18;6.45;;;4.72;;
21761;SDS011;11203;50.870;20.682;2023-04-23T09:47:54;6.10;;;4.30;;
21761;SDS011;11203;50.870;20.682;2023-04-23T09:50:32;5.45;;;4.63;;
21761;SDS011;11203;50.870;20.682;2023-04-23T09:53:04;6.55;;;4.82;;
21761;SDS011;11203;50.870;20.682;2023-04-23T09:55:33;6.50;;;5.00;;
21761;SDS011;11203;50.870;20.682;2023-04-23T09:58:09;7.03;;;4.75;;
21761;SDS011;11203;50.870;20.682;2023-04-23T10:00:38;9.38;;;6.90;;
21761;SDS011;11203;50.870;20.682;2023-04-23T10:03:04;8.82;;;6.13;;
